Hovedside
METAR-TAF:

METAR-TAF

Lufthavner :

Dala lufthavn

Borlänge, Sverige

breddegrad: 60-26N, lengdegrad: 015-31E, høyde over havet: 145 m

Gjeldene værobservasjon

Denne rapporten ble laget for 20 minutter siden, klokken 06:20 UTC
Vind 2 kt fra Vest
Temperatur 3°C
Luftfuktighet 100%
Trykk 1006 hPa
Sikt: 1600 m
lett regn

METAR: ESSD 170620Z AUTO 27002KT 1600 -RA OVC002/// 03/03 Q1006

Tid: 07:40 (06:40 UTC)


TAF: fraværende

Værobservasjoner og værvarsel for over 4000 flyplasser (METAR- og TAF-rapporter).

Tilgjengelige stasjoner er representert av de røde og gule prikkene på kartet.

Hold musepekeren over prikken for å se navnet på stasjonen.

Klikk så for å se værobservasjoner og -varsler.

For å forandre kartet kan du klikke på den grønne knappen med svart kryss for å zoome inn, på den grønne knappen med strek for å zoome ut, eller på de grønne pilene for å se tilstøtende kart.


METAR-TAF: